sensor_id;sensor_type;location;lat;lon;timestamp;P1;durP1;ratioP1;P2;durP2;ratioP2
9801;SDS011;4940;50.900;4.672;2023-07-20T00:20:26;35.85;;;33.28;;
9801;SDS011;4940;50.900;4.672;2023-07-20T00:26:22;40.00;;;37.10;;
9801;SDS011;4940;50.900;4.672;2023-07-20T00:29:05;38.10;;;35.53;;
9801;SDS011;4940;50.900;4.672;2023-07-20T00:31:58;33.58;;;31.27;;
9801;SDS011;4940;50.900;4.672;2023-07-20T00:34:45;34.10;;;31.17;;
9801;SDS011;4940;50.900;4.672;2023-07-20T00:37:42;31.90;;;29.60;;
9801;SDS011;4940;50.900;4.672;2023-07-20T00:41:04;33.65;;;31.15;;
9801;SDS011;4940;50.900;4.672;2023-07-20T00:50:50;33.70;;;31.20;;
9801;SDS011;4940;50.900;4.672;2023-07-20T00:53:36;36.50;;;33.97;;
9801;SDS011;4940;50.900;4.672;2023-07-20T01:40:40;35.40;;;32.63;;
9801;SDS011;4940;50.900;4.672;2023-07-20T01:49:49;36.80;;;33.95;;
9801;SDS011;4940;50.900;4.672;2023-07-20T02:09:19;36.67;;;34.03;;
9801;SDS011;4940;50.900;4.672;2023-07-20T02:12:42;34.03;;;31.55;;
9801;SDS011;4940;50.900;4.672;2023-07-20T02:15:37;36.58;;;33.33;;
9801;SDS011;4940;50.900;4.672;2023-07-20T02:18:26;43.00;;;39.80;;
9801;SDS011;4940;50.900;4.672;2023-07-20T02:22:15;41.35;;;38.03;;
9801;SDS011;4940;50.900;4.672;2023-07-20T02:42:58;41.17;;;37.97;;
9801;SDS011;4940;50.900;4.672;2023-07-20T02:52:41;42.03;;;38.63;;
9801;SDS011;4940;50.900;4.672;2023-07-20T02:56:24;40.53;;;36.63;;
9801;SDS011;4940;50.900;4.672;2023-07-20T02:59:12;40.63;;;36.88;;
9801;SDS011;4940;50.900;4.672;2023-07-20T03:02:07;45.28;;;41.38;;
9801;SDS011;4940;50.900;4.672;2023-07-20T03:05:08;41.55;;;37.97;;
9801;SDS011;4940;50.900;4.672;2023-07-20T03:07:55;38.42;;;34.88;;
9801;SDS011;4940;50.900;4.672;2023-07-20T03:10:33;40.47;;;37.15;;
9801;SDS011;4940;50.900;4.672;2023-07-20T03:13:26;42.42;;;38.67;;
9801;SDS011;4940;50.900;4.672;2023-07-20T03:16:25;41.70;;;37.70;;
9801;SDS011;4940;50.900;4.672;2023-07-20T03:19:27;37.05;;;33.90;;
9801;SDS011;4940;50.900;4.672;2023-07-20T03:22:57;39.08;;;35.60;;
9801;SDS011;4940;50.900;4.672;2023-07-20T03:25:39;37.90;;;34.55;;
9801;SDS011;4940;50.900;4.672;2023-07-20T03:28:36;40.70;;;37.25;;
9801;SDS011;4940;50.900;4.672;2023-07-20T03:31:34;38.78;;;35.15;;
9801;SDS011;4940;50.900;4.672;2023-07-20T03:34:44;39.80;;;36.17;;
9801;SDS011;4940;50.900;4.672;2023-07-20T03:37:44;40.65;;;36.90;;
9801;SDS011;4940;50.900;4.672;2023-07-20T03:44:12;41.42;;;38.08;;
9801;SDS011;4940;50.900;4.672;2023-07-20T03:47:01;41.42;;;37.67;;
9801;SDS011;4940;50.900;4.672;2023-07-20T03:49:48;40.72;;;37.15;;
9801;SDS011;4940;50.900;4.672;2023-07-20T03:52:28;43.00;;;39.10;;
9801;SDS011;4940;50.900;4.672;2023-07-20T03:55:40;41.25;;;37.78;;
9801;SDS011;4940;50.900;4.672;2023-07-20T03:58:25;41.42;;;37.72;;
9801;SDS011;4940;50.900;4.672;2023-07-20T04:01:24;36.20;;;32.90;;
9801;SDS011;4940;50.900;4.672;2023-07-20T04:07:07;37.88;;;34.50;;
9801;SDS011;4940;50.900;4.672;2023-07-20T04:13:15;35.70;;;32.55;;
9801;SDS011;4940;50.900;4.672;2023-07-20T04:16:10;39.47;;;36.00;;
9801;SDS011;4940;50.900;4.672;2023-07-20T04:19:26;35.30;;;32.05;;
9801;SDS011;4940;50.900;4.672;2023-07-20T04:22:25;36.17;;;32.58;;
9801;SDS011;4940;50.900;4.672;2023-07-20T04:31:58;39.10;;;35.58;;
9801;SDS011;4940;50.900;4.672;2023-07-20T04:32:39;39.80;;;36.05;;
9801;SDS011;4940;50.900;4.672;2023-07-20T04:38:55;38.10;;;34.30;;
9801;SDS011;4940;50.900;4.672;2023-07-20T04:41:25;40.85;;;36.95;;
9801;SDS011;4940;50.900;4.672;2023-07-20T04:44:32;42.42;;;38.42;;
9801;SDS011;4940;50.900;4.672;2023-07-20T05:28:45;43.20;;;38.80;;
9801;SDS011;4940;50.900;4.672;2023-07-20T05:31:56;38.78;;;35.03;;
9801;SDS011;4940;50.900;4.672;2023-07-20T05:34:50;37.65;;;33.95;;
9801;SDS011;4940;50.900;4.672;2023-07-20T05:37:50;40.13;;;36.42;;
9801;SDS011;4940;50.900;4.672;2023-07-20T05:43:51;38.50;;;34.80;;
9801;SDS011;4940;50.900;4.672;2023-07-20T05:46:51;39.80;;;36.30;;
9801;SDS011;4940;50.900;4.672;2023-07-20T05:49:37;37.72;;;34.22;;
9801;SDS011;4940;50.900;4.672;2023-07-20T05:52:39;36.08;;;32.85;;
9801;SDS011;4940;50.900;4.672;2023-07-20T05:55:07;36.65;;;33.28;;
9801;SDS011;4940;50.900;4.672;2023-07-20T05:57:53;36.85;;;33.50;;
9801;SDS011;4940;50.900;4.672;2023-07-20T06:00:48;37.15;;;33.55;;
9801;SDS011;4940;50.900;4.672;2023-07-20T06:03:31;35.63;;;32.47;;
9801;SDS011;4940;50.900;4.672;2023-07-20T06:06:03;37.67;;;34.50;;
9801;SDS011;4940;50.900;4.672;2023-07-20T06:08:35;38.75;;;35.05;;
9801;SDS011;4940;50.900;4.672;2023-07-20T06:11:02;36.58;;;33.28;;
9801;SDS011;4940;50.900;4.672;2023-07-20T06:13:31;36.67;;;33.45;;
9801;SDS011;4940;50.900;4.672;2023-07-20T06:15:58;36.55;;;33.35;;
9801;SDS011;4940;50.900;4.672;2023-07-20T06:18:25;36.90;;;33.55;;
9801;SDS011;4940;50.900;4.672;2023-07-20T06:20:52;34.13;;;31.27;;
9801;SDS011;4940;50.900;4.672;2023-07-20T06:23:20;36.25;;;33.28;;
9801;SDS011;4940;50.900;4.672;2023-07-20T06:25:47;34.97;;;32.08;;
9801;SDS011;4940;50.900;4.672;2023-07-20T06:28:15;34.10;;;31.50;;
9801;SDS011;4940;50.900;4.672;2023-07-20T06:30:44;34.35;;;31.73;;
9801;SDS011;4940;50.900;4.672;2023-07-20T06:33:11;33.53;;;30.85;;
9801;SDS011;4940;50.900;4.672;2023-07-20T06:35:41;33.95;;;31.23;;
9801;SDS011;4940;50.900;4.672;2023-07-20T06:38:09;33.75;;;31.15;;
9801;SDS011;4940;50.900;4.672;2023-07-20T06:40:36;33.72;;;31.15;;
9801;SDS011;4940;50.900;4.672;2023-07-20T06:43:04;34.53;;;31.67;;
9801;SDS011;4940;50.900;4.672;2023-07-20T06:45:31;31.80;;;29.48;;
9801;SDS011;4940;50.900;4.672;2023-07-20T06:48:00;32.80;;;30.25;;
9801;SDS011;4940;50.900;4.672;2023-07-20T06:50:27;30.92;;;28.50;;
9801;SDS011;4940;50.900;4.672;2023-07-20T06:52:54;29.70;;;27.45;;
9801;SDS011;4940;50.900;4.672;2023-07-20T06:55:22;28.60;;;26.25;;
9801;SDS011;4940;50.900;4.672;2023-07-20T06:57:49;29.80;;;27.20;;
9801;SDS011;4940;50.900;4.672;2023-07-20T07:00:17;28.80;;;26.65;;
9801;SDS011;4940;50.900;4.672;2023-07-20T07:02:45;29.83;;;27.52;;
9801;SDS011;4940;50.900;4.672;2023-07-20T07:05:13;28.88;;;26.58;;
9801;SDS011;4940;50.900;4.672;2023-07-20T07:07:41;28.88;;;26.77;;
9801;SDS011;4940;50.900;4.672;2023-07-20T07:10:08;31.60;;;29.15;;
9801;SDS011;4940;50.900;4.672;2023-07-20T07:12:35;32.03;;;29.52;;
9801;SDS011;4940;50.900;4.672;2023-07-20T07:15:03;32.65;;;30.13;;
9801;SDS011;4940;50.900;4.672;2023-07-20T07:17:32;32.47;;;29.95;;
9801;SDS011;4940;50.900;4.672;2023-07-20T07:20:00;32.92;;;30.50;;
9801;SDS011;4940;50.900;4.672;2023-07-20T07:22:29;33.60;;;30.80;;
9801;SDS011;4940;50.900;4.672;2023-07-20T07:24:57;33.72;;;30.92;;
9801;SDS011;4940;50.900;4.672;2023-07-20T07:27:24;33.38;;;30.52;;
9801;SDS011;4940;50.900;4.672;2023-07-20T07:29:51;31.38;;;29.02;;
9801;SDS011;4940;50.900;4.672;2023-07-20T07:32:20;28.02;;;26.02;;
9801;SDS011;4940;50.900;4.672;2023-07-20T07:34:47;25.90;;;24.00;;
9801;SDS011;4940;50.900;4.672;2023-07-20T07:37:14;23.55;;;21.58;;
9801;SDS011;4940;50.900;4.672;2023-07-20T07:39:43;20.67;;;19.13;;
9801;SDS011;4940;50.900;4.672;2023-07-20T07:42:11;20.83;;;19.02;;
9801;SDS011;4940;50.900;4.672;2023-07-20T07:44:38;20.52;;;18.95;;
9801;SDS011;4940;50.900;4.672;2023-07-20T07:47:06;23.27;;;21.48;;
9801;SDS011;4940;50.900;4.672;2023-07-20T07:49:33;20.45;;;18.95;;
9801;SDS011;4940;50.900;4.672;2023-07-20T07:52:01;18.40;;;16.88;;
9801;SDS011;4940;50.900;4.672;2023-07-20T07:54:28;17.88;;;16.27;;
9801;SDS011;4940;50.900;4.672;2023-07-20T07:56:57;13.77;;;12.48;;
9801;SDS011;4940;50.900;4.672;2023-07-20T07:59:24;11.20;;;10.20;;
9801;SDS011;4940;50.900;4.672;2023-07-20T08:01:52;12.95;;;10.10;;
9801;SDS011;4940;50.900;4.672;2023-07-20T08:04:19;12.32;;;7.80;;
9801;SDS011;4940;50.900;4.672;2023-07-20T08:06:48;7.43;;;6.43;;
9801;SDS011;4940;50.900;4.672;2023-07-20T08:09:17;11.52;;;7.28;;
9801;SDS011;4940;50.900;4.672;2023-07-20T08:11:44;7.72;;;6.93;;
9801;SDS011;4940;50.900;4.672;2023-07-20T08:14:19;10.27;;;7.07;;
9801;SDS011;4940;50.900;4.672;2023-07-20T08:16:47;8.90;;;8.10;;
9801;SDS011;4940;50.900;4.672;2023-07-20T08:19:15;6.20;;;5.13;;
9801;SDS011;4940;50.900;4.672;2023-07-20T08:21:43;5.95;;;4.63;;
9801;SDS011;4940;50.900;4.672;2023-07-20T08:24:16;6.15;;;4.57;;
9801;SDS011;4940;50.900;4.672;2023-07-20T08:27:36;5.63;;;4.45;;
9801;SDS011;4940;50.900;4.672;2023-07-20T08:31:01;4.35;;;3.95;;
9801;SDS011;4940;50.900;4.672;2023-07-20T08:37:23;3.35;;;3.00;;
9801;SDS011;4940;50.900;4.672;2023-07-20T08:40:53;2.47;;;2.28;;
9801;SDS011;4940;50.900;4.672;2023-07-20T08:44:06;2.45;;;2.17;;
9801;SDS011;4940;50.900;4.672;2023-07-20T08:46:47;4.28;;;2.72;;
9801;SDS011;4940;50.900;4.672;2023-07-20T08:52:29;4.82;;;2.97;;
9801;SDS011;4940;50.900;4.672;2023-07-20T08:55:02;2.60;;;2.40;;
9801;SDS011;4940;50.900;4.672;2023-07-20T08:58:07;4.25;;;2.35;;
9801;SDS011;4940;50.900;4.672;2023-07-20T09:01:11;2.55;;;2.35;;
9801;SDS011;4940;50.900;4.672;2023-07-20T09:20:27;2.17;;;2.08;;
9801;SDS011;4940;50.900;4.672;2023-07-20T09:26:45;3.72;;;2.05;;
9801;SDS011;4940;50.900;4.672;2023-07-20T09:29:58;2.00;;;1.90;;
9801;SDS011;4940;50.900;4.672;2023-07-20T09:33:11;3.13;;;2.10;;
9801;SDS011;4940;50.900;4.672;2023-07-20T09:36:32;2.00;;;1.80;;
9801;SDS011;4940;50.900;4.672;2023-07-20T09:42:46;2.53;;;2.08;;
9801;SDS011;4940;50.900;4.672;2023-07-20T10:09:27;1.80;;;1.70;;
9801;SDS011;4940;50.900;4.672;2023-07-20T10:12:41;1.90;;;1.80;;
9801;SDS011;4940;50.900;4.672;2023-07-20T10:39:04;2.35;;;1.63;;
9801;SDS011;4940;50.900;4.672;2023-07-20T10:54:36;1.80;;;1.70;;
9801;SDS011;4940;50.900;4.672;2023-07-20T10:57:28;2.20;;;1.67;;
9801;SDS011;4940;50.900;4.672;2023-07-20T11:00:09;1.40;;;1.30;;
9801;SDS011;4940;50.900;4.672;2023-07-20T11:02:44;1.50;;;1.40;;
9801;SDS011;4940;50.900;4.672;2023-07-20T11:05:32;1.30;;;1.20;;
9801;SDS011;4940;50.900;4.672;2023-07-20T11:08:00;1.33;;;1.23;;
9801;SDS011;4940;50.900;4.672;2023-07-20T11:10:31;3.08;;;1.70;;
9801;SDS011;4940;50.900;4.672;2023-07-20T11:13:20;1.50;;;1.33;;
9801;SDS011;4940;50.900;4.672;2023-07-20T11:18:34;1.40;;;1.30;;
9801;SDS011;4940;50.900;4.672;2023-07-20T11:21:06;1.30;;;1.20;;
9801;SDS011;4940;50.900;4.672;2023-07-20T11:23:37;3.28;;;1.33;;
9801;SDS011;4940;50.900;4.672;2023-07-20T11:26:06;1.40;;;1.30;;
9801;SDS011;4940;50.900;4.672;2023-07-20T11:28:34;2.38;;;1.17;;
9801;SDS011;4940;50.900;4.672;2023-07-20T11:31:01;1.23;;;1.13;;
9801;SDS011;4940;50.900;4.672;2023-07-20T11:33:29;1.50;;;1.40;;
9801;SDS011;4940;50.900;4.672;2023-07-20T11:35:56;1.50;;;1.40;;
9801;SDS011;4940;50.900;4.672;2023-07-20T11:38:23;1.52;;;1.25;;
9801;SDS011;4940;50.900;4.672;2023-07-20T11:40:51;1.00;;;1.00;;
9801;SDS011;4940;50.900;4.672;2023-07-20T11:43:19;1.83;;;1.33;;
9801;SDS011;4940;50.900;4.672;2023-07-20T11:45:48;1.35;;;1.08;;
9801;SDS011;4940;50.900;4.672;2023-07-20T11:48:15;1.40;;;1.30;;
9801;SDS011;4940;50.900;4.672;2023-07-20T11:50:43;0.90;;;0.90;;
9801;SDS011;4940;50.900;4.672;2023-07-20T11:53:10;2.03;;;1.30;;
9801;SDS011;4940;50.900;4.672;2023-07-20T11:55:38;2.03;;;1.30;;
9801;SDS011;4940;50.900;4.672;2023-07-20T11:58:06;2.80;;;1.05;;
9801;SDS011;4940;50.900;4.672;2023-07-20T12:00:36;1.02;;;1.00;;
9801;SDS011;4940;50.900;4.672;2023-07-20T12:03:05;2.10;;;1.13;;
9801;SDS011;4940;50.900;4.672;2023-07-20T12:05:33;1.52;;;1.23;;
9801;SDS011;4940;50.900;4.672;2023-07-20T12:08:00;1.40;;;1.30;;
9801;SDS011;4940;50.900;4.672;2023-07-20T12:10:28;1.40;;;1.30;;
9801;SDS011;4940;50.900;4.672;2023-07-20T12:13:00;2.83;;;1.45;;
9801;SDS011;4940;50.900;4.672;2023-07-20T12:15:28;1.52;;;1.42;;
9801;SDS011;4940;50.900;4.672;2023-07-20T12:17:59;1.45;;;1.35;;
9801;SDS011;4940;50.900;4.672;2023-07-20T12:20:28;2.20;;;1.30;;
9801;SDS011;4940;50.900;4.672;2023-07-20T12:22:58;1.65;;;1.38;;
9801;SDS011;4940;50.900;4.672;2023-07-20T12:28:15;5.97;;;1.13;;
9801;SDS011;4940;50.900;4.672;2023-07-20T12:30:43;1.25;;;1.20;;
9801;SDS011;4940;50.900;4.672;2023-07-20T12:33:12;1.60;;;1.50;;
9801;SDS011;4940;50.900;4.672;2023-07-20T12:35:41;3.60;;;1.45;;
9801;SDS011;4940;50.900;4.672;2023-07-20T12:38:08;1.30;;;1.20;;
9801;SDS011;4940;50.900;4.672;2023-07-20T12:40:36;1.77;;;1.20;;
9801;SDS011;4940;50.900;4.672;2023-07-20T12:43:03;1.40;;;1.30;;
9801;SDS011;4940;50.900;4.672;2023-07-20T12:45:31;1.50;;;1.40;;
9801;SDS011;4940;50.900;4.672;2023-07-20T12:48:01;3.65;;;1.50;;
9801;SDS011;4940;50.900;4.672;2023-07-20T12:50:30;3.40;;;1.40;;
9801;SDS011;4940;50.900;4.672;2023-07-20T12:52:57;1.20;;;1.20;;
9801;SDS011;4940;50.900;4.672;2023-07-20T12:55:24;1.58;;;1.20;;
9801;SDS011;4940;50.900;4.672;2023-07-20T12:57:52;1.33;;;1.23;;
9801;SDS011;4940;50.900;4.672;2023-07-20T13:00:19;1.40;;;1.30;;
9801;SDS011;4940;50.900;4.672;2023-07-20T13:02:48;1.38;;;1.30;;
9801;SDS011;4940;50.900;4.672;2023-07-20T13:05:16;1.40;;;1.30;;
9801;SDS011;4940;50.900;4.672;2023-07-20T13:07:44;1.20;;;1.10;;
9801;SDS011;4940;50.900;4.672;2023-07-20T13:10:12;1.48;;;1.30;;
9801;SDS011;4940;50.900;4.672;2023-07-20T13:12:39;1.52;;;1.42;;
9801;SDS011;4940;50.900;4.672;2023-07-20T13:15:07;1.80;;;1.70;;
9801;SDS011;4940;50.900;4.672;2023-07-20T13:17:35;2.78;;;1.50;;
9801;SDS011;4940;50.900;4.672;2023-07-20T13:20:04;1.70;;;1.60;;
9801;SDS011;4940;50.900;4.672;2023-07-20T13:22:33;1.52;;;1.42;;
9801;SDS011;4940;50.900;4.672;2023-07-20T13:25:01;4.35;;;1.70;;
9801;SDS011;4940;50.900;4.672;2023-07-20T13:27:29;1.95;;;1.77;;
9801;SDS011;4940;50.900;4.672;2023-07-20T13:29:57;1.77;;;1.67;;
9801;SDS011;4940;50.900;4.672;2023-07-20T13:32:25;1.80;;;1.70;;
9801;SDS011;4940;50.900;4.672;2023-07-20T13:34:53;1.98;;;1.80;;
9801;SDS011;4940;50.900;4.672;2023-07-20T13:37:20;1.65;;;1.55;;
9801;SDS011;4940;50.900;4.672;2023-07-20T13:39:48;2.42;;;1.92;;
9801;SDS011;4940;50.900;4.672;2023-07-20T13:42:17;1.70;;;1.60;;
9801;SDS011;4940;50.900;4.672;2023-07-20T13:44:46;2.67;;;1.88;;
9801;SDS011;4940;50.900;4.672;2023-07-20T13:47:13;1.70;;;1.60;;
9801;SDS011;4940;50.900;4.672;2023-07-20T13:49:41;1.75;;;1.65;;
9801;SDS011;4940;50.900;4.672;2023-07-20T13:52:08;2.00;;;1.90;;
9801;SDS011;4940;50.900;4.672;2023-07-20T13:54:35;1.63;;;1.50;;
9801;SDS011;4940;50.900;4.672;2023-07-20T13:57:03;1.50;;;1.40;;
9801;SDS011;4940;50.900;4.672;2023-07-20T13:59:34;1.60;;;1.50;;
9801;SDS011;4940;50.900;4.672;2023-07-20T14:02:02;1.73;;;1.63;;
9801;SDS011;4940;50.900;4.672;2023-07-20T14:04:29;3.90;;;1.70;;
9801;SDS011;4940;50.900;4.672;2023-07-20T14:06:57;1.60;;;1.50;;
9801;SDS011;4940;50.900;4.672;2023-07-20T14:09:24;1.40;;;1.30;;
9801;SDS011;4940;50.900;4.672;2023-07-20T14:11:51;1.70;;;1.40;;
9801;SDS011;4940;50.900;4.672;2023-07-20T14:14:19;2.17;;;1.30;;
9801;SDS011;4940;50.900;4.672;2023-07-20T14:16:51;1.55;;;1.45;;
9801;SDS011;4940;50.900;4.672;2023-07-20T14:19:19;1.63;;;1.50;;
9801;SDS011;4940;50.900;4.672;2023-07-20T14:21:47;1.23;;;1.23;;
9801;SDS011;4940;50.900;4.672;2023-07-20T14:24:17;1.50;;;1.40;;
9801;SDS011;4940;50.900;4.672;2023-07-20T14:26:48;1.40;;;1.30;;
9801;SDS011;4940;50.900;4.672;2023-07-20T14:29:16;1.52;;;1.40;;
9801;SDS011;4940;50.900;4.672;2023-07-20T14:31:45;3.88;;;1.70;;
9801;SDS011;4940;50.900;4.672;2023-07-20T14:34:17;1.60;;;1.50;;
9801;SDS011;4940;50.900;4.672;2023-07-20T14:36:44;1.55;;;1.45;;
9801;SDS011;4940;50.900;4.672;2023-07-20T14:39:13;2.10;;;1.42;;
9801;SDS011;4940;50.900;4.672;2023-07-20T14:41:40;2.03;;;1.50;;
9801;SDS011;4940;50.900;4.672;2023-07-20T14:44:08;1.50;;;1.40;;
9801;SDS011;4940;50.900;4.672;2023-07-20T14:46:36;1.58;;;1.48;;
9801;SDS011;4940;50.900;4.672;2023-07-20T14:49:03;6.05;;;1.80;;
9801;SDS011;4940;50.900;4.672;2023-07-20T14:51:31;2.03;;;1.70;;
9801;SDS011;4940;50.900;4.672;2023-07-20T14:54:01;1.70;;;1.60;;
9801;SDS011;4940;50.900;4.672;2023-07-20T14:56:28;1.50;;;1.40;;
9801;SDS011;4940;50.900;4.672;2023-07-20T14:58:55;9.07;;;1.80;;
9801;SDS011;4940;50.900;4.672;2023-07-20T15:01:23;1.70;;;1.60;;
9801;SDS011;4940;50.900;4.672;2023-07-20T15:03:51;2.95;;;1.50;;
9801;SDS011;4940;50.900;4.672;2023-07-20T15:06:19;1.83;;;1.70;;
9801;SDS011;4940;50.900;4.672;2023-07-20T15:08:51;2.20;;;1.70;;
9801;SDS011;4940;50.900;4.672;2023-07-20T15:11:19;1.65;;;1.55;;
9801;SDS011;4940;50.900;4.672;2023-07-20T15:13:46;1.65;;;1.55;;
9801;SDS011;4940;50.900;4.672;2023-07-20T15:16:16;1.85;;;1.75;;
9801;SDS011;4940;50.900;4.672;2023-07-20T15:18:44;1.98;;;1.88;;
9801;SDS011;4940;50.900;4.672;2023-07-20T15:21:12;1.88;;;1.77;;
9801;SDS011;4940;50.900;4.672;2023-07-20T15:23:42;4.47;;;2.08;;
9801;SDS011;4940;50.900;4.672;2023-07-20T15:26:12;2.00;;;1.90;;
9801;SDS011;4940;50.900;4.672;2023-07-20T15:28:41;1.88;;;1.77;;
9801;SDS011;4940;50.900;4.672;2023-07-20T15:31:08;1.88;;;1.60;;
9801;SDS011;4940;50.900;4.672;2023-07-20T15:33:36;2.47;;;1.90;;
9801;SDS011;4940;50.900;4.672;2023-07-20T15:36:06;1.83;;;1.73;;
9801;SDS011;4940;50.900;4.672;2023-07-20T15:38:34;1.80;;;1.50;;
9801;SDS011;4940;50.900;4.672;2023-07-20T15:41:02;1.80;;;1.70;;
9801;SDS011;4940;50.900;4.672;2023-07-20T15:43:33;2.40;;;1.98;;
9801;SDS011;4940;50.900;4.672;2023-07-20T15:46:01;1.67;;;1.58;;
9801;SDS011;4940;50.900;4.672;2023-07-20T15:48:49;1.83;;;1.73;;
9801;SDS011;4940;50.900;4.672;2023-07-20T15:51:16;3.63;;;2.20;;
9801;SDS011;4940;50.900;4.672;2023-07-20T15:53:44;1.90;;;1.80;;
9801;SDS011;4940;50.900;4.672;2023-07-20T15:56:11;4.15;;;1.90;;
9801;SDS011;4940;50.900;4.672;2023-07-20T15:58:40;2.05;;;1.90;;
9801;SDS011;4940;50.900;4.672;2023-07-20T16:01:07;2.05;;;1.95;;
9801;SDS011;4940;50.900;4.672;2023-07-20T16:03:35;2.50;;;2.05;;
9801;SDS011;4940;50.900;4.672;2023-07-20T16:06:10;4.90;;;1.90;;
9801;SDS011;4940;50.900;4.672;2023-07-20T16:08:37;2.30;;;2.10;;
9801;SDS011;4940;50.900;4.672;2023-07-20T16:11:05;3.50;;;2.10;;
9801;SDS011;4940;50.900;4.672;2023-07-20T16:13:34;2.75;;;2.30;;
9801;SDS011;4940;50.900;4.672;2023-07-20T16:18:48;2.70;;;2.50;;
9801;SDS011;4940;50.900;4.672;2023-07-20T16:21:21;2.90;;;2.45;;
9801;SDS011;4940;50.900;4.672;2023-07-20T16:23:49;3.35;;;3.08;;
9801;SDS011;4940;50.900;4.672;2023-07-20T16:26:16;4.10;;;3.72;;
9801;SDS011;4940;50.900;4.672;2023-07-20T16:28:44;4.43;;;3.85;;
9801;SDS011;4940;50.900;4.672;2023-07-20T16:31:11;4.30;;;3.90;;
9801;SDS011;4940;50.900;4.672;2023-07-20T16:33:41;5.45;;;4.15;;
9801;SDS011;4940;50.900;4.672;2023-07-20T16:36:09;4.63;;;4.20;;
9801;SDS011;4940;50.900;4.672;2023-07-20T16:38:37;4.47;;;4.07;;
9801;SDS011;4940;50.900;4.672;2023-07-20T16:41:05;5.28;;;4.78;;
9801;SDS011;4940;50.900;4.672;2023-07-20T16:43:33;5.20;;;4.78;;
9801;SDS011;4940;50.900;4.672;2023-07-20T16:46:01;6.40;;;5.80;;
9801;SDS011;4940;50.900;4.672;2023-07-20T16:48:29;7.75;;;7.22;;
9801;SDS011;4940;50.900;4.672;2023-07-20T16:50:58;14.32;;;13.43;;
9801;SDS011;4940;50.900;4.672;2023-07-20T16:53:25;18.00;;;16.92;;
9801;SDS011;4940;50.900;4.672;2023-07-20T16:55:53;21.52;;;20.23;;
9801;SDS011;4940;50.900;4.672;2023-07-20T16:58:22;23.90;;;22.50;;
9801;SDS011;4940;50.900;4.672;2023-07-20T17:00:49;26.77;;;25.02;;
9801;SDS011;4940;50.900;4.672;2023-07-20T17:03:17;27.02;;;25.45;;
9801;SDS011;4940;50.900;4.672;2023-07-20T17:05:45;27.38;;;25.67;;
9801;SDS011;4940;50.900;4.672;2023-07-20T17:08:15;27.60;;;25.80;;
9801;SDS011;4940;50.900;4.672;2023-07-20T17:10:43;27.88;;;26.17;;
9801;SDS011;4940;50.900;4.672;2023-07-20T17:13:10;29.42;;;27.63;;
9801;SDS011;4940;50.900;4.672;2023-07-20T17:15:41;29.88;;;27.95;;
9801;SDS011;4940;50.900;4.672;2023-07-20T17:18:13;30.65;;;28.52;;
9801;SDS011;4940;50.900;4.672;2023-07-20T17:20:40;29.80;;;27.90;;
9801;SDS011;4940;50.900;4.672;2023-07-20T17:23:08;29.98;;;28.02;;
9801;SDS011;4940;50.900;4.672;2023-07-20T17:25:37;29.42;;;27.52;;
9801;SDS011;4940;50.900;4.672;2023-07-20T17:28:08;30.10;;;28.10;;
9801;SDS011;4940;50.900;4.672;2023-07-20T17:30:36;30.38;;;28.38;;
9801;SDS011;4940;50.900;4.672;2023-07-20T17:33:03;30.33;;;28.27;;
9801;SDS011;4940;50.900;4.672;2023-07-20T17:35:31;30.88;;;28.77;;
9801;SDS011;4940;50.900;4.672;2023-07-20T17:37:58;32.10;;;29.90;;
9801;SDS011;4940;50.900;4.672;2023-07-20T17:40:26;31.10;;;29.00;;
9801;SDS011;4940;50.900;4.672;2023-07-20T17:42:56;32.78;;;30.48;;
9801;SDS011;4940;50.900;4.672;2023-07-20T17:45:23;33.17;;;30.83;;
9801;SDS011;4940;50.900;4.672;2023-07-20T17:47:50;31.73;;;29.52;;
9801;SDS011;4940;50.900;4.672;2023-07-20T17:50:17;31.38;;;29.08;;
9801;SDS011;4940;50.900;4.672;2023-07-20T17:52:45;31.58;;;29.23;;
9801;SDS011;4940;50.900;4.672;2023-07-20T17:55:12;32.03;;;29.63;;
9801;SDS011;4940;50.900;4.672;2023-07-20T17:57:40;36.33;;;33.55;;
9801;SDS011;4940;50.900;4.672;2023-07-20T18:00:09;33.95;;;31.45;;
9801;SDS011;4940;50.900;4.672;2023-07-20T18:02:38;32.20;;;29.60;;
9801;SDS011;4940;50.900;4.672;2023-07-20T18:05:06;31.67;;;29.30;;
9801;SDS011;4940;50.900;4.672;2023-07-20T18:07:34;31.15;;;28.90;;
9801;SDS011;4940;50.900;4.672;2023-07-20T18:10:08;32.47;;;30.17;;
9801;SDS011;4940;50.900;4.672;2023-07-20T18:12:37;31.33;;;29.13;;
9801;SDS011;4940;50.900;4.672;2023-07-20T18:15:07;30.90;;;28.80;;
9801;SDS011;4940;50.900;4.672;2023-07-20T18:17:38;31.10;;;29.10;;
9801;SDS011;4940;50.900;4.672;2023-07-20T18:20:06;32.40;;;30.20;;
9801;SDS011;4940;50.900;4.672;2023-07-20T18:22:35;33.95;;;31.35;;
9801;SDS011;4940;50.900;4.672;2023-07-20T18:25:03;31.63;;;29.48;;
9801;SDS011;4940;50.900;4.672;2023-07-20T18:27:31;32.42;;;30.23;;
9801;SDS011;4940;50.900;4.672;2023-07-20T18:30:38;30.50;;;28.38;;
9801;SDS011;4940;50.900;4.672;2023-07-20T18:33:35;30.77;;;28.77;;
9801;SDS011;4940;50.900;4.672;2023-07-20T18:36:27;29.00;;;27.20;;
9801;SDS011;4940;50.900;4.672;2023-07-20T18:39:06;29.05;;;27.25;;
9801;SDS011;4940;50.900;4.672;2023-07-20T18:41:54;29.15;;;27.23;;
9801;SDS011;4940;50.900;4.672;2023-07-20T18:44:22;29.23;;;27.33;;
9801;SDS011;4940;50.900;4.672;2023-07-20T18:46:57;30.70;;;28.55;;
9801;SDS011;4940;50.900;4.672;2023-07-20T18:49:24;32.20;;;30.08;;
9801;SDS011;4940;50.900;4.672;2023-07-20T18:51:52;28.17;;;26.38;;
9801;SDS011;4940;50.900;4.672;2023-07-20T18:54:19;30.75;;;28.40;;
9801;SDS011;4940;50.900;4.672;2023-07-20T18:56:46;28.77;;;26.90;;
9801;SDS011;4940;50.900;4.672;2023-07-20T18:59:14;26.90;;;25.30;;
9801;SDS011;4940;50.900;4.672;2023-07-20T19:01:41;27.48;;;25.67;;
9801;SDS011;4940;50.900;4.672;2023-07-20T19:04:10;28.55;;;26.77;;
9801;SDS011;4940;50.900;4.672;2023-07-20T19:06:37;27.65;;;25.95;;
9801;SDS011;4940;50.900;4.672;2023-07-20T19:09:04;26.50;;;24.92;;
9801;SDS011;4940;50.900;4.672;2023-07-20T19:11:32;25.80;;;24.20;;
9801;SDS011;4940;50.900;4.672;2023-07-20T19:13:59;25.23;;;23.67;;
9801;SDS011;4940;50.900;4.672;2023-07-20T19:16:26;26.15;;;24.60;;
9801;SDS011;4940;50.900;4.672;2023-07-20T19:18:55;25.55;;;24.05;;
9801;SDS011;4940;50.900;4.672;2023-07-20T19:21:24;26.50;;;24.90;;
9801;SDS011;4940;50.900;4.672;2023-07-20T19:23:52;26.42;;;24.83;;
9801;SDS011;4940;50.900;4.672;2023-07-20T19:26:19;25.50;;;23.90;;
9801;SDS011;4940;50.900;4.672;2023-07-20T19:28:46;27.52;;;25.92;;
9801;SDS011;4940;50.900;4.672;2023-07-20T19:31:14;27.30;;;25.70;;
9801;SDS011;4940;50.900;4.672;2023-07-20T19:33:41;28.02;;;26.42;;
9801;SDS011;4940;50.900;4.672;2023-07-20T19:36:08;28.98;;;27.17;;
9801;SDS011;4940;50.900;4.672;2023-07-20T19:38:37;29.38;;;27.48;;
9801;SDS011;4940;50.900;4.672;2023-07-20T19:41:04;28.10;;;26.20;;
9801;SDS011;4940;50.900;4.672;2023-07-20T19:43:32;28.92;;;27.13;;
9801;SDS011;4940;50.900;4.672;2023-07-20T19:45:59;26.73;;;25.10;;
9801;SDS011;4940;50.900;4.672;2023-07-20T19:48:28;28.52;;;26.73;;
9801;SDS011;4940;50.900;4.672;2023-07-20T19:50:55;28.25;;;26.38;;
9801;SDS011;4940;50.900;4.672;2023-07-20T19:53:22;29.48;;;27.58;;
9801;SDS011;4940;50.900;4.672;2023-07-20T19:55:54;28.10;;;26.30;;
9801;SDS011;4940;50.900;4.672;2023-07-20T19:58:24;27.83;;;26.02;;
9801;SDS011;4940;50.900;4.672;2023-07-20T20:00:51;28.83;;;26.92;;
9801;SDS011;4940;50.900;4.672;2023-07-20T20:03:18;26.48;;;24.77;;
9801;SDS011;4940;50.900;4.672;2023-07-20T20:05:46;28.52;;;26.63;;
9801;SDS011;4940;50.900;4.672;2023-07-20T20:08:14;27.45;;;25.80;;
9801;SDS011;4940;50.900;4.672;2023-07-20T20:10:42;29.02;;;27.05;;
9801;SDS011;4940;50.900;4.672;2023-07-20T20:13:11;30.80;;;28.80;;
9801;SDS011;4940;50.900;4.672;2023-07-20T20:15:41;31.08;;;28.98;;
9801;SDS011;4940;50.900;4.672;2023-07-20T20:18:09;32.08;;;29.80;;
9801;SDS011;4940;50.900;4.672;2023-07-20T20:20:36;30.85;;;28.80;;
9801;SDS011;4940;50.900;4.672;2023-07-20T20:23:06;30.30;;;28.30;;
9801;SDS011;4940;50.900;4.672;2023-07-20T20:25:42;30.40;;;28.48;;
9801;SDS011;4940;50.900;4.672;2023-07-20T20:28:11;30.70;;;28.63;;
9801;SDS011;4940;50.900;4.672;2023-07-20T20:30:41;29.85;;;27.95;;